Página principal
METAR-TAF:

METAR-TAF

Aeroportos :

Aeroporto de Sydney

Sydney, Austrália

latitude: 33-57S, longitude: 151-11E, altura: 6 m

Observação actual do tempo

O boletim foi feito há 11 minutos, às 01:00 UTC
Vento 12 kt de oeste
Temperatura 14°C
Humidade 31%
Pressão 1013 hPa
Visibilidade 10 km ou mais
sem nuvens abaixo de 1500 metros e sem cumulonimbus

METAR: YSSY 160100Z 28012KT CAVOK 14/M03 Q1013 NOSIG

Hora: 11:11 (01:11 UTC)

Previsão

O boletim foi feito há 1 hora e 41 minutos, às 23:30 UTC
Previsão válida de 16 às 00 UTC a 17 às 06 UTC
Vento 10 kt de oes-noroeste
Visibilidade 10 km ou mais
sem nuvens abaixo de 1500 metros e sem cumulonimbus
A partir de 17 às 0200 UTC
Vento 15 kt de nor-noroeste
Visibilidade 10 km ou mais
sem nuvens abaixo de 1500 metros e sem cumulonimbus

TAF: YSSY 152330Z 1600/1706 29010KT CAVOK FM170200 34015KT CAVOK

Observações e previsões do tempo de mais de 4000 aeroportos (mensagens METAR e TAF).

As estações disponíveis são os pontos amarelos e vermelhos sobre o mapa.

Mova o rato sobre o mapa para ver o nome da estação.

Depois clique no ponto para visualizar as observações e previsões meteorológicas.

Para alterar o mapa : clique nos botões verdes com uma cruz preta para aumentar o zoom; no botão verde com uma pitada de zoom; ou nas setas verdes para mapas adjacentes.


METAR-TAF: